sensor_id;sensor_type;location;lat;lon;timestamp;pressure;altitude;pressure_sealevel;temperature;humidity
66381;BME280;53177;52.648;1.214;2023-06-10T00:01:44;101076.28;;;12.47;97.71
66381;BME280;53177;52.648;1.214;2023-06-10T00:04:16;101076.25;;;12.49;97.49
66381;BME280;53177;52.648;1.214;2023-06-10T00:06:45;101072.72;;;12.48;97.30
66381;BME280;53177;52.648;1.214;2023-06-10T00:09:13;101074.41;;;12.51;97.19
66381;BME280;53177;52.648;1.214;2023-06-10T00:11:40;101071.78;;;12.49;97.20
66381;BME280;53177;52.648;1.214;2023-06-10T00:14:06;101077.19;;;12.46;97.33
66381;BME280;53177;52.648;1.214;2023-06-10T00:16:31;101070.94;;;12.49;97.31
66381;BME280;53177;52.648;1.214;2023-06-10T00:18:58;101071.78;;;12.49;97.44
66381;BME280;53177;52.648;1.214;2023-06-10T00:21:30;101075.41;;;12.45;97.34
66381;BME280;53177;52.648;1.214;2023-06-10T00:24:06;101066.63;;;12.45;97.54
66381;BME280;53177;52.648;1.214;2023-06-10T00:26:32;101070.13;;;12.45;97.68
66381;BME280;53177;52.648;1.214;2023-06-10T00:28:59;101071.88;;;12.46;97.60
66381;BME280;53177;52.648;1.214;2023-06-10T00:31:24;101063.97;;;12.45;97.83
66381;BME280;53177;52.648;1.214;2023-06-10T00:33:51;101069.22;;;12.46;97.94
66381;BME280;53177;52.648;1.214;2023-06-10T00:36:17;101067.47;;;12.45;97.89
66381;BME280;53177;52.648;1.214;2023-06-10T00:38:42;101063.03;;;12.46;97.99
66381;BME280;53177;52.648;1.214;2023-06-10T00:41:07;101058.66;;;12.45;98.08
66381;BME280;53177;52.648;1.214;2023-06-10T00:43:33;101068.31;;;12.47;98.05
66381;BME280;53177;52.648;1.214;2023-06-10T00:45:59;101069.13;;;12.49;98.20
66381;BME280;53177;52.648;1.214;2023-06-10T00:48:25;101059.50;;;12.45;98.29
66381;BME280;53177;52.648;1.214;2023-06-10T00:50:50;101064.00;;;12.43;98.52
66381;BME280;53177;52.648;1.214;2023-06-10T00:53:16;101066.56;;;12.46;98.61
66381;BME280;53177;52.648;1.214;2023-06-10T00:55:42;101061.31;;;12.45;98.87
66381;BME280;53177;52.648;1.214;2023-06-10T00:58:07;101058.72;;;12.42;99.10
66381;BME280;53177;52.648;1.214;2023-06-10T01:00:33;101064.91;;;12.42;99.22
66381;BME280;53177;52.648;1.214;2023-06-10T01:02:59;101069.31;;;12.42;99.26
66381;BME280;53177;52.648;1.214;2023-06-10T01:05:24;101071.06;;;12.43;99.66
66381;BME280;53177;52.648;1.214;2023-06-10T01:12:59;101055.25;;;12.40;100.00
66381;BME280;53177;52.648;1.214;2023-06-10T01:15:34;101056.16;;;12.39;100.00
66381;BME280;53177;52.648;1.214;2023-06-10T01:18:10;101054.38;;;12.39;100.00
66381;BME280;53177;52.648;1.214;2023-06-10T01:20:41;101054.44;;;12.38;100.00
66381;BME280;53177;52.648;1.214;2023-06-10T01:23:09;101054.44;;;12.36;100.00
66381;BME280;53177;52.648;1.214;2023-06-10T01:25:49;101042.97;;;12.36;100.00
66381;BME280;53177;52.648;1.214;2023-06-10T01:28:23;101043.91;;;12.33;100.00
66381;BME280;53177;52.648;1.214;2023-06-10T01:31:30;101048.28;;;12.34;100.00
66381;BME280;53177;52.648;1.214;2023-06-10T01:34:00;101044.66;;;12.38;100.00
66381;BME280;53177;52.648;1.214;2023-06-10T01:36:27;101036.75;;;12.37;100.00
66381;BME280;53177;52.648;1.214;2023-06-10T01:38:53;101042.81;;;12.42;100.00
66381;BME280;53177;52.648;1.214;2023-06-10T01:41:20;101042.06;;;12.37;100.00
66381;BME280;53177;52.648;1.214;2023-06-10T01:43:47;101039.41;;;12.37;100.00
66381;BME280;53177;52.648;1.214;2023-06-10T01:46:13;101036.56;;;12.44;100.00
66381;BME280;53177;52.648;1.214;2023-06-10T01:48:40;101045.41;;;12.45;100.00
66381;BME280;53177;52.648;1.214;2023-06-10T01:51:06;101038.28;;;12.45;100.00
66381;BME280;53177;52.648;1.214;2023-06-10T01:53:31;101038.34;;;12.44;100.00
66381;BME280;53177;52.648;1.214;2023-06-10T01:55:56;101039.22;;;12.44;100.00
66381;BME280;53177;52.648;1.214;2023-06-10T01:58:22;101029.34;;;12.49;100.00
66381;BME280;53177;52.648;1.214;2023-06-10T02:00:47;101030.31;;;12.47;100.00
66381;BME280;53177;52.648;1.214;2023-06-10T02:03:13;101032.13;;;12.45;100.00
66381;BME280;53177;52.648;1.214;2023-06-10T02:05:39;101037.38;;;12.46;100.00
66381;BME280;53177;52.648;1.214;2023-06-10T02:08:04;101039.22;;;12.44;100.00
66381;BME280;53177;52.648;1.214;2023-06-10T02:10:30;101040.94;;;12.45;100.00
66381;BME280;53177;52.648;1.214;2023-06-10T02:12:55;101033.03;;;12.44;100.00
66381;BME280;53177;52.648;1.214;2023-06-10T02:15:21;101040.09;;;12.45;100.00
66381;BME280;53177;52.648;1.214;2023-06-10T02:17:46;101041.78;;;12.49;100.00
66381;BME280;53177;52.648;1.214;2023-06-10T02:20:12;101042.66;;;12.48;100.00
66381;BME280;53177;52.648;1.214;2023-06-10T02:22:38;101039.91;;;12.52;100.00
66381;BME280;53177;52.648;1.214;2023-06-10T02:25:05;101037.25;;;12.52;100.00
66381;BME280;53177;52.648;1.214;2023-06-10T02:27:30;101034.50;;;12.55;100.00
66381;BME280;53177;52.648;1.214;2023-06-10T02:29:59;101040.69;;;12.56;100.00
66381;BME280;53177;52.648;1.214;2023-06-10T02:32:24;101038.94;;;12.55;100.00
66381;BME280;53177;52.648;1.214;2023-06-10T02:34:50;101037.16;;;12.55;100.00
66381;BME280;53177;52.648;1.214;2023-06-10T02:37:16;101033.72;;;12.52;100.00
66381;BME280;53177;52.648;1.214;2023-06-10T02:39:41;101034.53;;;12.54;100.00
66381;BME280;53177;52.648;1.214;2023-06-10T02:42:07;101033.56;;;12.58;100.00
66381;BME280;53177;52.648;1.214;2023-06-10T02:44:32;101038.03;;;12.56;100.00
66381;BME280;53177;52.648;1.214;2023-06-10T02:46:58;101029.25;;;12.54;100.00
66381;BME280;53177;52.648;1.214;2023-06-10T02:49:23;101030.13;;;12.54;100.00
66381;BME280;53177;52.648;1.214;2023-06-10T02:51:54;101024.72;;;12.57;100.00
66381;BME280;53177;52.648;1.214;2023-06-10T02:54:26;101030.03;;;12.57;100.00
66381;BME280;53177;52.648;1.214;2023-06-10T02:56:54;101026.56;;;12.55;100.00
66381;BME280;53177;52.648;1.214;2023-06-10T02:59:23;101025.69;;;12.55;100.00
66381;BME280;53177;52.648;1.214;2023-06-10T03:01:54;101023.81;;;12.58;100.00
66381;BME280;53177;52.648;1.214;2023-06-10T03:04:20;101024.63;;;12.60;100.00
66381;BME280;53177;52.648;1.214;2023-06-10T03:06:46;101015.75;;;12.63;100.00
66381;BME280;53177;52.648;1.214;2023-06-10T03:09:12;101027.16;;;12.66;100.00
66381;BME280;53177;52.648;1.214;2023-06-10T03:11:38;101021.88;;;12.65;100.00
66381;BME280;53177;52.648;1.214;2023-06-10T03:14:04;101028.03;;;12.67;100.00
66381;BME280;53177;52.648;1.214;2023-06-10T03:16:30;101026.28;;;12.66;100.00
66381;BME280;53177;52.648;1.214;2023-06-10T03:18:56;101022.78;;;12.64;100.00
66381;BME280;53177;52.648;1.214;2023-06-10T03:21:22;101026.31;;;12.64;100.00
66381;BME280;53177;52.648;1.214;2023-06-10T03:23:47;101024.50;;;12.66;100.00
66381;BME280;53177;52.648;1.214;2023-06-10T03:26:13;101025.41;;;12.65;100.00
66381;BME280;53177;52.648;1.214;2023-06-10T03:28:39;101021.00;;;12.64;100.00
66381;BME280;53177;52.648;1.214;2023-06-10T03:31:05;101023.72;;;12.63;100.00
66381;BME280;53177;52.648;1.214;2023-06-10T03:33:30;101023.72;;;12.63;100.00
66381;BME280;53177;52.648;1.214;2023-06-10T03:35:56;101018.44;;;12.61;100.00
66381;BME280;53177;52.648;1.214;2023-06-10T03:38:21;101017.56;;;12.61;100.00
66381;BME280;53177;52.648;1.214;2023-06-10T03:40:47;101018.50;;;12.60;100.00
66381;BME280;53177;52.648;1.214;2023-06-10T03:43:12;101020.25;;;12.59;100.00
66381;BME280;53177;52.648;1.214;2023-06-10T03:45:38;101019.41;;;12.57;100.00
66381;BME280;53177;52.648;1.214;2023-06-10T03:48:04;101018.50;;;12.58;100.00
66381;BME280;53177;52.648;1.214;2023-06-10T03:50:29;101020.25;;;12.59;100.00
66381;BME280;53177;52.648;1.214;2023-06-10T03:52:55;101014.97;;;12.58;100.00
66381;BME280;53177;52.648;1.214;2023-06-10T03:55:20;101028.13;;;12.62;100.00
66381;BME280;53177;52.648;1.214;2023-06-10T03:57:47;101022.84;;;12.62;100.00
66381;BME280;53177;52.648;1.214;2023-06-10T04:00:14;101012.25;;;12.61;100.00
66381;BME280;53177;52.648;1.214;2023-06-10T04:02:41;101021.88;;;12.65;100.00
66381;BME280;53177;52.648;1.214;2023-06-10T04:05:15;101020.97;;;12.66;100.00
66381;BME280;53177;52.648;1.214;2023-06-10T04:07:41;101024.50;;;12.66;100.00
66381;BME280;53177;52.648;1.214;2023-06-10T04:10:08;101028.88;;;12.67;100.00
66381;BME280;53177;52.648;1.214;2023-06-10T04:12:34;101030.59;;;12.70;100.00
66381;BME280;53177;52.648;1.214;2023-06-10T04:14:59;101032.34;;;12.71;100.00
66381;BME280;53177;52.648;1.214;2023-06-10T04:17:25;101031.31;;;12.75;100.00
66381;BME280;53177;52.648;1.214;2023-06-10T04:19:51;101026.81;;;12.79;100.00
66381;BME280;53177;52.648;1.214;2023-06-10T04:22:18;101031.25;;;12.78;100.00
66381;BME280;53177;52.648;1.214;2023-06-10T04:24:44;101038.38;;;12.76;100.00
66381;BME280;53177;52.648;1.214;2023-06-10T04:27:09;101038.28;;;12.79;100.00
66381;BME280;53177;52.648;1.214;2023-06-10T04:29:35;101038.25;;;12.81;100.00
66381;BME280;53177;52.648;1.214;2023-06-10T04:32:01;101032.00;;;12.83;100.00
66381;BME280;53177;52.648;1.214;2023-06-10T04:34:27;101028.41;;;12.86;100.00
66381;BME280;53177;52.648;1.214;2023-06-10T04:36:52;101031.91;;;12.86;100.00
66381;BME280;53177;52.648;1.214;2023-06-10T04:39:18;101031.78;;;12.91;100.00
66381;BME280;53177;52.648;1.214;2023-06-10T04:41:43;101029.88;;;12.96;100.00
66381;BME280;53177;52.648;1.214;2023-06-10T04:44:09;101028.94;;;12.98;100.00
66381;BME280;53177;52.648;1.214;2023-06-10T04:46:35;101034.22;;;13.00;100.00
66381;BME280;53177;52.648;1.214;2023-06-10T04:49:01;101034.16;;;13.01;100.00
66381;BME280;53177;52.648;1.214;2023-06-10T04:51:27;101023.53;;;13.01;100.00
66381;BME280;53177;52.648;1.214;2023-06-10T04:53:52;101033.25;;;13.02;100.00
66381;BME280;53177;52.648;1.214;2023-06-10T04:56:18;101022.44;;;13.08;100.00
66381;BME280;53177;52.648;1.214;2023-06-10T04:58:44;101025.00;;;13.13;100.00
66381;BME280;53177;52.648;1.214;2023-06-10T05:01:09;101031.97;;;13.17;100.00
66381;BME280;53177;52.648;1.214;2023-06-10T05:03:34;101030.06;;;13.22;100.00
66381;BME280;53177;52.648;1.214;2023-06-10T05:06:00;101023.66;;;13.29;100.00
66381;BME280;53177;52.648;1.214;2023-06-10T05:08:25;101027.03;;;13.34;100.00
66381;BME280;53177;52.648;1.214;2023-06-10T05:10:51;101025.16;;;13.38;100.00
66381;BME280;53177;52.648;1.214;2023-06-10T05:13:16;101034.75;;;13.43;100.00
66381;BME280;53177;52.648;1.214;2023-06-10T05:15:42;101028.38;;;13.49;100.00
66381;BME280;53177;52.648;1.214;2023-06-10T05:18:10;101033.47;;;13.56;100.00
66381;BME280;53177;52.648;1.214;2023-06-10T05:20:37;101025.31;;;13.62;100.00
66381;BME280;53177;52.648;1.214;2023-06-10T05:23:02;101035.72;;;13.70;100.00
66381;BME280;53177;52.648;1.214;2023-06-10T05:25:30;101027.44;;;13.79;100.00
66381;BME280;53177;52.648;1.214;2023-06-10T05:27:55;101034.28;;;13.88;100.00
66381;BME280;53177;52.648;1.214;2023-06-10T05:30:22;101033.13;;;13.96;100.00
66381;BME280;53177;52.648;1.214;2023-06-10T05:32:48;101035.44;;;14.07;100.00
66381;BME280;53177;52.648;1.214;2023-06-10T05:35:13;101037.91;;;14.13;99.85
66381;BME280;53177;52.648;1.214;2023-06-10T05:37:39;101037.44;;;14.27;98.83
66381;BME280;53177;52.648;1.214;2023-06-10T05:40:04;101042.59;;;14.33;99.20
66381;BME280;53177;52.648;1.214;2023-06-10T05:42:30;101036.97;;;14.42;98.20
66381;BME280;53177;52.648;1.214;2023-06-10T05:44:56;101044.53;;;14.55;97.31
66381;BME280;53177;52.648;1.214;2023-06-10T05:47:21;101038.00;;;14.64;97.30
66381;BME280;53177;52.648;1.214;2023-06-10T05:49:46;101041.25;;;14.72;97.14
66381;BME280;53177;52.648;1.214;2023-06-10T05:52:14;101039.81;;;14.88;95.96
66381;BME280;53177;52.648;1.214;2023-06-10T05:54:39;101039.31;;;15.02;95.29
66381;BME280;53177;52.648;1.214;2023-06-10T05:57:05;101036.53;;;15.05;95.67
66381;BME280;53177;52.648;1.214;2023-06-10T05:59:31;101037.94;;;15.15;94.07
66381;BME280;53177;52.648;1.214;2023-06-10T06:01:56;101032.81;;;15.34;93.38
66381;BME280;53177;52.648;1.214;2023-06-10T06:04:21;101030.53;;;15.48;92.53
66381;BME280;53177;52.648;1.214;2023-06-10T06:06:47;101038.44;;;15.51;91.78
66381;BME280;53177;52.648;1.214;2023-06-10T06:09:12;101039.97;;;15.56;92.80
66381;BME280;53177;52.648;1.214;2023-06-10T06:11:38;101047.06;;;15.57;91.77
66381;BME280;53177;52.648;1.214;2023-06-10T06:14:03;101044.81;;;15.70;91.54
66381;BME280;53177;52.648;1.214;2023-06-10T06:16:29;101047.34;;;15.73;91.91
66381;BME280;53177;52.648;1.214;2023-06-10T06:18:54;101050.59;;;15.81;91.27
66381;BME280;53177;52.648;1.214;2023-06-10T06:21:19;101048.72;;;15.83;90.73
66381;BME280;53177;52.648;1.214;2023-06-10T06:23:45;101048.16;;;15.97;91.04
66381;BME280;53177;52.648;1.214;2023-06-10T06:26:10;101046.06;;;16.05;89.83
66381;BME280;53177;52.648;1.214;2023-06-10T06:28:36;101053.72;;;16.14;88.22
66381;BME280;53177;52.648;1.214;2023-06-10T06:31:01;101055.25;;;16.20;89.25
66381;BME280;53177;52.648;1.214;2023-06-10T06:33:26;101054.25;;;16.22;88.63
66381;BME280;53177;52.648;1.214;2023-06-10T06:35:52;101047.38;;;16.38;87.31
66381;BME280;53177;52.648;1.214;2023-06-10T06:38:17;101050.41;;;16.51;85.97
66381;BME280;53177;52.648;1.214;2023-06-10T06:40:43;101052.06;;;16.53;86.81
66381;BME280;53177;52.648;1.214;2023-06-10T06:43:08;101054.31;;;16.64;87.84
66381;BME280;53177;52.648;1.214;2023-06-10T06:45:34;101051.75;;;16.63;86.04
66381;BME280;53177;52.648;1.214;2023-06-10T06:47:59;101048.47;;;16.76;85.30
66381;BME280;53177;52.648;1.214;2023-06-10T06:50:25;101053.88;;;16.95;85.27
66381;BME280;53177;52.648;1.214;2023-06-10T06:52:51;101051.41;;;16.90;86.15
66381;BME280;53177;52.648;1.214;2023-06-10T06:55:16;101054.53;;;17.00;84.21
66381;BME280;53177;52.648;1.214;2023-06-10T06:57:41;101054.00;;;17.12;84.78
66381;BME280;53177;52.648;1.214;2023-06-10T07:00:07;101063.56;;;17.18;83.51
66381;BME280;53177;52.648;1.214;2023-06-10T07:02:34;101066.03;;;17.22;83.04
66381;BME280;53177;52.648;1.214;2023-06-10T07:05:00;101064.69;;;17.32;83.18
66381;BME280;53177;52.648;1.214;2023-06-10T07:07:26;101056.81;;;17.48;82.53
66381;BME280;53177;52.648;1.214;2023-06-10T07:09:52;101054.97;;;17.50;80.51
66381;BME280;53177;52.648;1.214;2023-06-10T07:12:17;101066.22;;;17.58;82.39
66381;BME280;53177;52.648;1.214;2023-06-10T07:14:43;101064.13;;;17.65;81.37
66381;BME280;53177;52.648;1.214;2023-06-10T07:17:12;101065.56;;;17.72;81.76
66381;BME280;53177;52.648;1.214;2023-06-10T07:19:40;101067.75;;;17.82;81.09
66381;BME280;53177;52.648;1.214;2023-06-10T07:22:06;101066.66;;;17.86;79.03
66381;BME280;53177;52.648;1.214;2023-06-10T07:24:31;101079.53;;;17.97;80.17
66381;BME280;53177;52.648;1.214;2023-06-10T07:26:56;101072.31;;;17.99;78.59
66381;BME280;53177;52.648;1.214;2023-06-10T07:29:22;101081.41;;;18.14;81.56
66381;BME280;53177;52.648;1.214;2023-06-10T07:31:47;101074.31;;;18.13;78.82
66381;BME280;53177;52.648;1.214;2023-06-10T07:34:12;101079.16;;;18.23;78.10
66381;BME280;53177;52.648;1.214;2023-06-10T07:36:38;101076.31;;;18.26;77.30
66381;BME280;53177;52.648;1.214;2023-06-10T07:39:04;101079.56;;;18.33;77.00
66381;BME280;53177;52.648;1.214;2023-06-10T07:41:29;101084.09;;;18.49;77.81
66381;BME280;53177;52.648;1.214;2023-06-10T07:43:55;101085.63;;;18.55;76.30
66381;BME280;53177;52.648;1.214;2023-06-10T07:46:22;101093.00;;;18.69;76.76
66381;BME280;53177;52.648;1.214;2023-06-10T07:48:48;101086.38;;;18.76;75.77
66381;BME280;53177;52.648;1.214;2023-06-10T07:51:15;101087.91;;;18.99;76.82
66381;BME280;53177;52.648;1.214;2023-06-10T07:53:40;101093.81;;;19.05;73.68
66381;BME280;53177;52.648;1.214;2023-06-10T07:56:06;101096.00;;;19.14;73.88
66381;BME280;53177;52.648;1.214;2023-06-10T07:58:31;101091.25;;;19.19;74.55
66381;BME280;53177;52.648;1.214;2023-06-10T08:00:56;101090.16;;;19.23;72.92
66381;BME280;53177;52.648;1.214;2023-06-10T08:03:22;101095.19;;;19.29;71.74
66381;BME280;53177;52.648;1.214;2023-06-10T08:05:47;101094.72;;;19.38;72.75
66381;BME280;53177;52.648;1.214;2023-06-10T08:08:13;101097.78;;;19.48;71.84
66381;BME280;53177;52.648;1.214;2023-06-10T08:10:38;101097.22;;;19.59;71.28
66381;BME280;53177;52.648;1.214;2023-06-10T08:13:04;101093.81;;;19.72;70.80
66381;BME280;53177;52.648;1.214;2023-06-10T08:15:29;101091.41;;;19.83;70.25
66381;BME280;53177;52.648;1.214;2023-06-10T08:17:55;101096.63;;;20.02;71.30
66381;BME280;53177;52.648;1.214;2023-06-10T08:20:22;101094.09;;;20.15;69.26
66381;BME280;53177;52.648;1.214;2023-06-10T08:22:47;101093.00;;;20.34;70.32
66381;BME280;53177;52.648;1.214;2023-06-10T08:25:13;101093.63;;;20.39;69.49
66381;BME280;53177;52.648;1.214;2023-06-10T08:27:38;101092.31;;;20.31;68.21
66381;BME280;53177;52.648;1.214;2023-06-10T08:30:05;101096.75;;;20.32;68.67
66381;BME280;53177;52.648;1.214;2023-06-10T08:32:30;101094.38;;;20.57;69.06
66381;BME280;53177;52.648;1.214;2023-06-10T08:34:56;101093.69;;;20.69;66.37
66381;BME280;53177;52.648;1.214;2023-06-10T08:37:21;101091.19;;;20.80;65.91
66381;BME280;53177;52.648;1.214;2023-06-10T08:39:47;101087.91;;;20.91;65.94
66381;BME280;53177;52.648;1.214;2023-06-10T08:44:46;101082.22;;;21.25;65.92
66381;BME280;53177;52.648;1.214;2023-06-10T08:47:14;101084.78;;;21.43;65.51
66381;BME280;53177;52.648;1.214;2023-06-10T08:49:47;101085.16;;;21.65;65.76
66381;BME280;53177;52.648;1.214;2023-06-10T08:52:17;101082.16;;;21.69;64.50
66381;BME280;53177;52.648;1.214;2023-06-10T08:54:52;101079.69;;;21.95;64.95
66381;BME280;53177;52.648;1.214;2023-06-10T08:57:19;101085.53;;;22.15;62.80
66381;BME280;53177;52.648;1.214;2023-06-10T08:59:48;101086.28;;;22.17;61.83
66381;BME280;53177;52.648;1.214;2023-06-10T09:02:15;101091.06;;;22.26;63.84
66381;BME280;53177;52.648;1.214;2023-06-10T09:04:42;101088.13;;;22.44;62.78
66381;BME280;53177;52.648;1.214;2023-06-10T09:07:09;101096.84;;;22.61;62.10
66381;BME280;53177;52.648;1.214;2023-06-10T09:09:35;101094.69;;;22.66;60.64
66381;BME280;53177;52.648;1.214;2023-06-10T09:12:01;101096.03;;;23.00;60.57
66381;BME280;53177;52.648;1.214;2023-06-10T09:14:27;101091.53;;;23.26;61.15
66381;BME280;53177;52.648;1.214;2023-06-10T09:16:52;101098.63;;;23.14;59.74
66381;BME280;53177;52.648;1.214;2023-06-10T09:19:22;101090.88;;;23.22;60.79
66381;BME280;53177;52.648;1.214;2023-06-10T09:21:48;101103.41;;;23.23;58.06
66381;BME280;53177;52.648;1.214;2023-06-10T09:24:13;101102.44;;;23.37;58.92
66381;BME280;53177;52.648;1.214;2023-06-10T09:26:39;101107.44;;;23.56;58.21
66381;BME280;53177;52.648;1.214;2023-06-10T09:29:06;101105.31;;;23.61;57.28
66381;BME280;53177;52.648;1.214;2023-06-10T09:31:35;101110.13;;;23.81;57.03
66381;BME280;53177;52.648;1.214;2023-06-10T09:34:11;101108.69;;;24.13;58.43
66381;BME280;53177;52.648;1.214;2023-06-10T09:36:38;101109.13;;;24.56;57.08
66381;BME280;53177;52.648;1.214;2023-06-10T09:39:04;101110.25;;;24.41;56.88
66381;BME280;53177;52.648;1.214;2023-06-10T09:41:39;101107.72;;;24.27;56.12
66381;BME280;53177;52.648;1.214;2023-06-10T09:44:11;101117.91;;;24.47;55.84
66381;BME280;53177;52.648;1.214;2023-06-10T09:46:38;101115.19;;;24.23;54.74
66381;BME280;53177;52.648;1.214;2023-06-10T09:49:03;101108.13;;;24.34;56.63
66381;BME280;53177;52.648;1.214;2023-06-10T09:51:28;101119.22;;;24.65;53.69
66381;BME280;53177;52.648;1.214;2023-06-10T09:53:54;101114.66;;;24.79;54.35
66381;BME280;53177;52.648;1.214;2023-06-10T09:56:20;101118.16;;;24.68;54.30
66381;BME280;53177;52.648;1.214;2023-06-10T09:58:46;101107.94;;;24.48;53.77
66381;BME280;53177;52.648;1.214;2023-06-10T10:01:13;101102.97;;;24.78;52.32
66381;BME280;53177;52.648;1.214;2023-06-10T10:03:51;101103.03;;;24.89;52.55
66381;BME280;53177;52.648;1.214;2023-06-10T10:06:18;101100.25;;;25.02;54.65
66381;BME280;53177;52.648;1.214;2023-06-10T10:08:46;101109.75;;;25.07;52.16
66381;BME280;53177;52.648;1.214;2023-06-10T10:11:12;101094.47;;;25.41;54.98
66381;BME280;53177;52.648;1.214;2023-06-10T10:13:39;101101.44;;;25.33;51.37
66381;BME280;53177;52.648;1.214;2023-06-10T10:16:12;101095.25;;;25.08;51.86
66381;BME280;53177;52.648;1.214;2023-06-10T10:18:43;101094.72;;;25.38;50.98
66381;BME280;53177;52.648;1.214;2023-06-10T10:21:15;101101.72;;;25.41;49.70
66381;BME280;53177;52.648;1.214;2023-06-10T10:26:40;101102.03;;;25.60;48.78
66381;BME280;53177;52.648;1.214;2023-06-10T10:29:33;101098.97;;;25.76;51.17
66381;BME280;53177;52.648;1.214;2023-06-10T10:32:00;101091.31;;;25.81;51.74
66381;BME280;53177;52.648;1.214;2023-06-10T10:34:36;101095.13;;;26.00;49.74
66381;BME280;53177;52.648;1.214;2023-06-10T10:37:04;101091.31;;;26.14;50.38
66381;BME280;53177;52.648;1.214;2023-06-10T10:39:29;101093.66;;;26.30;48.67
66381;BME280;53177;52.648;1.214;2023-06-10T10:41:56;101084.41;;;25.99;49.26
66381;BME280;53177;52.648;1.214;2023-06-10T10:44:23;101091.56;;;26.00;48.86
66381;BME280;53177;52.648;1.214;2023-06-10T10:46:49;101082.63;;;26.42;49.54
66381;BME280;53177;52.648;1.214;2023-06-10T10:49:17;101081.66;;;26.43;48.59
66381;BME280;53177;52.648;1.214;2023-06-10T10:51:56;101080.19;;;26.82;47.80
66381;BME280;53177;52.648;1.214;2023-06-10T10:54:32;101078.81;;;26.88;46.46
66381;BME280;53177;52.648;1.214;2023-06-10T10:57:11;101091.94;;;26.83;47.92
66381;BME280;53177;52.648;1.214;2023-06-10T11:00:04;101089.13;;;27.05;48.60
66381;BME280;53177;52.648;1.214;2023-06-10T11:02:44;101081.88;;;26.94;46.60
66381;BME280;53177;52.648;1.214;2023-06-10T11:05:30;101079.03;;;27.17;46.42
66381;BME280;53177;52.648;1.214;2023-06-10T11:07:56;101072.81;;;27.46;44.94
66381;BME280;53177;52.648;1.214;2023-06-10T11:10:39;101072.88;;;27.35;45.96
66381;BME280;53177;52.648;1.214;2023-06-10T11:13:14;101069.22;;;27.25;45.26
66381;BME280;53177;52.648;1.214;2023-06-10T11:15:47;101071.16;;;27.55;44.21
66381;BME280;53177;52.648;1.214;2023-06-10T11:18:23;101078.53;;;27.64;42.68
66381;BME280;53177;52.648;1.214;2023-06-10T11:28:40;101064.94;;;27.64;45.54
66381;BME280;53177;52.648;1.214;2023-06-10T11:31:06;101063.78;;;27.67;45.30
66381;BME280;53177;52.648;1.214;2023-06-10T11:33:32;101065.47;;;27.98;43.82
66381;BME280;53177;52.648;1.214;2023-06-10T11:35:58;101066.09;;;27.71;43.29
66381;BME280;53177;52.648;1.214;2023-06-10T11:38:24;101065.00;;;27.83;44.86
66381;BME280;53177;52.648;1.214;2023-06-10T11:40:50;101072.75;;;28.18;43.01
66381;BME280;53177;52.648;1.214;2023-06-10T11:43:17;101069.06;;;27.98;42.64
66381;BME280;53177;52.648;1.214;2023-06-10T11:45:42;101069.91;;;27.89;41.81
66381;BME280;53177;52.648;1.214;2023-06-10T11:48:09;101066.75;;;27.94;44.40
66381;BME280;53177;52.648;1.214;2023-06-10T11:50:35;101072.22;;;28.34;44.80
66381;BME280;53177;52.648;1.214;2023-06-10T11:53:02;101076.63;;;28.25;41.30
66381;BME280;53177;52.648;1.214;2023-06-10T11:55:43;101080.09;;;27.97;42.81
66381;BME280;53177;52.648;1.214;2023-06-10T11:58:18;101078.00;;;28.10;43.86
66381;BME280;53177;52.648;1.214;2023-06-10T12:00:48;101078.75;;;27.91;41.11
66381;BME280;53177;52.648;1.214;2023-06-10T12:03:15;101084.34;;;27.60;42.32
66381;BME280;53177;52.648;1.214;2023-06-10T12:05:40;101083.25;;;27.72;43.69
66381;BME280;53177;52.648;1.214;2023-06-10T12:08:18;101078.75;;;27.91;41.52
66381;BME280;53177;52.648;1.214;2023-06-10T12:10:44;101071.34;;;27.93;42.33
66381;BME280;53177;52.648;1.214;2023-06-10T12:13:09;101084.66;;;28.27;44.86
66381;BME280;53177;52.648;1.214;2023-06-10T12:15:35;101081.41;;;28.52;41.72
66381;BME280;53177;52.648;1.214;2023-06-10T12:18:01;101075.53;;;28.66;41.27
66381;BME280;53177;52.648;1.214;2023-06-10T12:20:30;101085.69;;;28.64;42.36
66381;BME280;53177;52.648;1.214;2023-06-10T12:22:59;101082.84;;;28.56;43.41
66381;BME280;53177;52.648;1.214;2023-06-10T12:25:28;101089.94;;;27.98;43.12
66381;BME280;53177;52.648;1.214;2023-06-10T12:27:57;101081.97;;;28.06;43.41
66381;BME280;53177;52.648;1.214;2023-06-10T12:30:25;101075.91;;;27.63;44.25
66381;BME280;53177;52.648;1.214;2023-06-10T12:32:52;101079.66;;;28.01;44.87
66381;BME280;53177;52.648;1.214;2023-06-10T12:35:22;101083.22;;;28.32;43.88
66381;BME280;53177;52.648;1.214;2023-06-10T12:38:02;101074.47;;;28.29;43.74
66381;BME280;53177;52.648;1.214;2023-06-10T12:40:37;101087.31;;;27.87;41.61
66381;BME280;53177;52.648;1.214;2023-06-10T12:43:04;101085.13;;;27.30;44.09
66381;BME280;53177;52.648;1.214;2023-06-10T12:45:33;101096.50;;;27.03;44.28
66381;BME280;53177;52.648;1.214;2023-06-10T12:48:12;101088.06;;;27.58;44.42
66381;BME280;53177;52.648;1.214;2023-06-10T12:50:43;101088.31;;;27.14;44.79
66381;BME280;53177;52.648;1.214;2023-06-10T12:53:10;101090.91;;;27.57;45.04
66381;BME280;53177;52.648;1.214;2023-06-10T12:55:39;101087.50;;;27.95;43.07
66381;BME280;53177;52.648;1.214;2023-06-10T12:58:05;101081.94;;;28.27;45.51
66381;BME280;53177;52.648;1.214;2023-06-10T13:00:30;101085.69;;;28.45;43.07
66381;BME280;53177;52.648;1.214;2023-06-10T13:02:57;101085.25;;;28.30;43.70
66381;BME280;53177;52.648;1.214;2023-06-10T13:05:22;101088.94;;;27.89;45.50